createdAt,value
2018-09-01T00:00:43.022Z,102100.15
2018-09-01T00:03:11.624Z,102098.63
2018-09-01T00:05:40.306Z,102100.20
2018-09-01T00:08:08.906Z,102095.29
2018-09-01T00:10:37.519Z,102098.41
2018-09-01T00:13:06.141Z,102094.84
2018-09-01T00:15:34.994Z,102094.34
2018-09-01T00:18:03.599Z,102091.24
2018-09-01T00:20:32.218Z,102101.48
2018-09-01T00:23:00.809Z,102099.75
2018-09-01T00:25:29.464Z,102106.77
2018-09-01T00:27:58.081Z,102106.40
2018-09-01T00:30:26.692Z,102102.48
2018-09-01T00:32:55.287Z,102104.72
2018-09-01T00:35:23.896Z,102098.94
2018-09-01T00:37:57.556Z,102101.18
2018-09-01T00:40:27.512Z,102107.02
2018-09-01T00:42:57.922Z,102096.09
2018-09-01T00:45:26.643Z,102102.59
2018-09-01T00:47:55.258Z,102101.05
2018-09-01T00:50:23.941Z,102107.71
2018-09-01T00:52:52.548Z,102108.88
2018-09-01T00:55:26.320Z,102106.33
2018-09-01T00:57:55.080Z,102102.42
2018-09-01T01:00:23.977Z,102108.56
2018-09-01T01:02:52.848Z,102103.77
2018-09-01T01:05:21.917Z,102100.02
2018-09-01T01:07:50.540Z,102100.53
2018-09-01T01:10:19.139Z,102100.72
2018-09-01T01:12:48.724Z,102105.66
2018-09-01T01:15:17.417Z,102105.81
2018-09-01T01:17:45.974Z,102101.05
2018-09-01T01:20:14.565Z,102099.84
2018-09-01T01:22:43.148Z,102102.39
2018-09-01T01:25:11.753Z,102111.61
2018-09-01T01:27:40.385Z,102116.73
2018-09-01T01:30:09.005Z,102121.67
2018-09-01T01:32:37.761Z,102116.21
2018-09-01T01:35:06.464Z,102124.55
2018-09-01T01:37:36.816Z,102119.59
2018-09-01T01:40:06.238Z,102131.69
2018-09-01T01:42:36.103Z,102132.39
2018-09-01T01:45:05.034Z,102139.22
2018-09-01T01:47:38.848Z,102137.34
2018-09-01T01:50:08.542Z,102132.59
2018-09-01T01:52:37.118Z,102134.63
2018-09-01T01:55:05.987Z,102140.45
2018-09-01T01:57:38.692Z,102140.12
2018-09-01T02:00:07.696Z,102142.84
2018-09-01T02:02:36.751Z,102145.06
2018-09-01T02:05:06.432Z,102139.94
2018-09-01T02:07:34.994Z,102138.72
2018-09-01T02:10:03.653Z,102138.38
2018-09-01T02:12:32.225Z,102143.17
2018-09-01T02:15:01.110Z,102142.80
2018-09-01T02:17:29.757Z,102141.11
2018-09-01T02:19:58.340Z,102140.26
2018-09-01T02:22:26.913Z,102140.92
2018-09-01T02:24:55.540Z,102147.22
2018-09-01T02:27:24.132Z,102145.01
2018-09-01T02:29:52.750Z,102140.07
2018-09-01T02:32:21.386Z,102142.66
2018-09-01T02:34:50.021Z,102149.63
2018-09-01T02:37:18.621Z,102143.69
2018-09-01T02:39:47.266Z,102141.63
2018-09-01T02:42:15.850Z,102149.28
2018-09-01T02:44:44.588Z,102151.31
2018-09-01T02:47:13.222Z,102156.09
2018-09-01T02:49:41.805Z,102156.76
2018-09-01T02:52:10.418Z,102164.09
2018-09-01T02:54:39.021Z,102169.23
2018-09-01T02:57:07.835Z,102169.24
2018-09-01T02:59:36.471Z,102168.73
2018-09-01T03:02:05.209Z,102179.28
2018-09-01T03:04:33.832Z,102181.80
2018-09-01T03:07:02.578Z,102181.73
2018-09-01T03:09:31.181Z,102176.78
2018-09-01T03:12:00.102Z,102178.84
2018-09-01T03:14:29.005Z,102180.38
2018-09-01T03:16:57.917Z,102178.55
2018-09-01T03:19:27.013Z,102181.65
2018-09-01T03:21:55.618Z,102170.73
2018-09-01T03:24:24.208Z,102171.94
2018-09-01T03:26:52.822Z,102168.61
2018-09-01T03:29:21.408Z,102170.05
2018-09-01T03:31:50.005Z,102167.18
2018-09-01T03:34:18.592Z,102166.71
2018-09-01T03:36:47.195Z,102170.52
2018-09-01T03:39:15.770Z,102167.02
2018-09-01T03:41:44.393Z,102160.73
2018-09-01T03:44:12.969Z,102162.80
2018-09-01T03:46:41.593Z,102168.94
2018-09-01T03:49:10.833Z,102168.60
2018-09-01T03:51:39.437Z,102171.85
2018-09-01T03:54:08.030Z,102164.03
2018-09-01T03:56:36.643Z,102161.66
2018-09-01T03:59:05.412Z,102162.34
2018-09-01T04:01:34.004Z,102167.32
2018-09-01T04:04:02.729Z,102172.78
2018-09-01T04:06:31.342Z,102166.28
2018-09-01T04:08:59.929Z,102168.16
2018-09-01T04:11:28.532Z,102170.56
2018-09-01T04:13:57.174Z,102169.34
2018-09-01T04:16:25.776Z,102172.44
2018-09-01T04:18:54.404Z,102175.30
2018-09-01T04:21:23.017Z,102177.69
2018-09-01T04:23:51.624Z,102178.38
2018-09-01T04:26:20.257Z,102184.19
2018-09-01T04:28:48.836Z,102182.97
2018-09-01T04:31:17.440Z,102181.92
2018-09-01T04:33:46.019Z,102181.06
2018-09-01T04:36:14.638Z,102183.95
2018-09-01T04:38:43.227Z,102183.41
2018-09-01T04:41:11.896Z,102185.77
2018-09-01T04:43:40.531Z,102184.04
2018-09-01T04:46:09.137Z,102181.27
2018-09-01T04:48:37.734Z,102188.25
2018-09-01T04:51:06.323Z,102191.14
2018-09-01T04:53:34.918Z,102195.20
2018-09-01T04:56:03.498Z,102195.67
2018-09-01T04:58:32.127Z,102194.94
2018-09-01T05:01:00.765Z,102205.31
2018-09-01T05:03:29.369Z,102205.48
2018-09-01T05:05:57.945Z,102211.10
2018-09-01T05:08:26.562Z,102212.93
2018-09-01T05:10:55.147Z,102217.86
2018-09-01T05:13:23.740Z,102226.57
2018-09-01T05:15:52.309Z,102221.25
2018-09-01T05:18:20.876Z,102221.94
2018-09-01T05:20:49.441Z,102224.29
2018-09-01T05:23:18.098Z,102225.30
2018-09-01T05:25:46.761Z,102229.05
2018-09-01T05:28:15.364Z,102230.91
2018-09-01T05:30:43.963Z,102225.07
2018-09-01T05:33:12.610Z,102228.46
2018-09-01T05:35:41.231Z,102226.82
2018-09-01T05:38:09.835Z,102229.72
2018-09-01T05:40:38.414Z,102235.89
2018-09-01T05:43:07.015Z,102229.92
2018-09-01T05:45:35.598Z,102238.11
2018-09-01T05:48:04.222Z,102242.02
2018-09-01T05:50:32.791Z,102242.55
2018-09-01T05:53:01.383Z,102238.27
2018-09-01T05:55:30.046Z,102245.97
2018-09-01T05:57:58.656Z,102243.20
2018-09-01T06:00:27.329Z,102252.78
2018-09-01T06:02:55.940Z,102251.70
2018-09-01T06:05:24.519Z,102248.75
2018-09-01T06:07:53.135Z,102257.23
2018-09-01T06:10:21.729Z,102252.91
2018-09-01T06:12:50.325Z,102261.45
2018-09-01T06:15:18.906Z,102266.22
2018-09-01T06:17:47.563Z,102273.08
2018-09-01T06:20:16.118Z,102281.91
2018-09-01T06:22:44.754Z,102273.99
2018-09-01T06:25:13.354Z,102276.81
2018-09-01T06:27:45.345Z,102276.52
2018-09-01T06:30:16.478Z,102281.25
2018-09-01T06:32:45.104Z,102280.57
2018-09-01T06:35:13.694Z,102275.05
2018-09-01T06:37:42.368Z,102276.97
2018-09-01T06:40:10.931Z,102282.89
2018-09-01T06:42:39.552Z,102293.81
2018-09-01T06:45:08.167Z,102292.66
2018-09-01T06:47:36.760Z,102296.03
2018-09-01T06:50:05.484Z,102302.42
2018-09-01T06:52:34.094Z,102300.95
2018-09-01T06:55:02.677Z,102305.02
2018-09-01T06:57:31.385Z,102307.28
2018-09-01T07:00:00.010Z,102310.83
2018-09-01T07:02:28.632Z,102315.52
2018-09-01T07:04:57.229Z,102320.75
2018-09-01T07:07:25.808Z,102322.50
2018-09-01T07:09:54.422Z,102322.02
2018-09-01T07:12:23.006Z,102322.17
2018-09-01T07:14:51.610Z,102321.55
2018-09-01T07:17:20.197Z,102324.66
2018-09-01T07:19:48.790Z,102322.74
2018-09-01T07:22:17.350Z,102330.98
2018-09-01T07:24:45.975Z,102330.78
2018-09-01T07:27:14.563Z,102339.53
2018-09-01T07:29:43.177Z,102324.86
2018-09-01T07:32:11.791Z,102333.48
2018-09-01T07:34:40.463Z,102342.27
2018-09-01T07:37:09.112Z,102343.19
2018-09-01T07:39:37.718Z,102347.45
2018-09-01T07:42:06.469Z,102349.44
2018-09-01T07:44:35.125Z,102351.22
2018-09-01T07:47:03.731Z,102354.27
2018-09-01T07:49:32.325Z,102355.88
2018-09-01T07:52:00.905Z,102363.23
2018-09-01T07:54:29.554Z,102364.84
2018-09-01T07:56:58.132Z,102373.31
2018-09-01T07:59:26.748Z,102381.18
2018-09-01T08:01:55.335Z,102389.89
2018-09-01T08:04:23.932Z,102387.58
2018-09-01T08:06:52.534Z,102380.91
2018-09-01T08:09:21.434Z,102372.87
2018-09-01T08:11:50.455Z,102380.84
2018-09-01T08:14:19.150Z,102380.44
2018-09-01T08:16:48.111Z,102382.48
2018-09-01T08:19:16.784Z,102387.33
2018-09-01T08:21:45.399Z,102391.32
2018-09-01T08:24:14.025Z,102391.56
2018-09-01T08:26:42.608Z,102396.41
2018-09-01T08:29:11.246Z,102402.36
2018-09-01T08:31:39.824Z,102407.92
2018-09-01T08:34:08.454Z,102410.16
2018-09-01T08:36:37.105Z,102410.58
2018-09-01T08:39:07.083Z,102408.56
2018-09-01T08:41:35.730Z,102404.98
2018-09-01T08:44:04.387Z,102404.87
2018-09-01T08:46:32.975Z,102393.91
2018-09-01T08:49:01.561Z,102401.19
2018-09-01T08:51:30.134Z,102398.96
2018-09-01T08:53:58.735Z,102396.90
2018-09-01T08:56:27.368Z,102400.16
2018-09-01T08:58:55.990Z,102402.09
2018-09-01T09:01:24.595Z,102395.81
2018-09-01T09:03:53.170Z,102405.34
2018-09-01T09:06:21.779Z,102406.92
2018-09-01T09:08:50.390Z,102407.62
2018-09-01T09:11:18.983Z,102408.77
2018-09-01T09:13:47.605Z,102411.65
2018-09-01T09:16:16.207Z,102415.42
2018-09-01T09:18:44.848Z,102413.30
2018-09-01T09:21:13.476Z,102410.77
2018-09-01T09:23:42.067Z,102407.27
2018-09-01T09:26:10.673Z,102410.32
2018-09-01T09:28:39.248Z,102414.07
2018-09-01T09:31:07.946Z,102416.07
2018-09-01T09:33:36.542Z,102423.13
2018-09-01T09:36:05.266Z,102418.59
2018-09-01T09:38:33.842Z,102429.31
2018-09-01T09:41:02.454Z,102430.94
2018-09-01T09:43:31.035Z,102422.72
2018-09-01T09:45:59.654Z,102425.39
2018-09-01T09:48:28.245Z,102428.73
2018-09-01T09:50:56.897Z,102423.22
2018-09-01T09:53:25.543Z,102424.23
2018-09-01T09:55:54.164Z,102421.53
2018-09-01T09:58:22.885Z,102410.06
2018-09-01T10:00:59.101Z,102408.64
2018-09-01T10:03:28.387Z,102412.84
2018-09-01T10:05:57.000Z,102415.63
2018-09-01T10:08:25.564Z,102409.30
2018-09-01T10:10:54.171Z,102419.74
2018-09-01T10:13:22.739Z,102420.23
2018-09-01T10:15:51.333Z,102410.91
2018-09-01T10:18:19.947Z,102408.30
2018-09-01T10:20:48.533Z,102416.68
2018-09-01T10:23:17.145Z,102410.30
2018-09-01T10:25:45.755Z,102415.59
2018-09-01T10:28:14.312Z,102414.53
2018-09-01T10:30:42.886Z,102405.73
2018-09-01T10:33:11.467Z,102407.95
2018-09-01T10:35:40.057Z,102403.67
2018-09-01T10:38:09.061Z,102411.48
2018-09-01T10:40:37.677Z,102408.84
2018-09-01T10:43:06.448Z,102399.56
2018-09-01T10:45:35.410Z,102405.05
2018-09-01T10:48:04.086Z,102396.56
2018-09-01T10:50:32.692Z,102394.55
2018-09-01T10:53:01.265Z,102392.59
2018-09-01T10:55:29.899Z,102388.97
2018-09-01T10:57:58.494Z,102393.16
2018-09-01T11:00:27.087Z,102392.91
2018-09-01T11:02:55.689Z,102391.95
2018-09-01T11:05:24.333Z,102380.98
2018-09-01T11:07:52.899Z,102382.52
2018-09-01T11:10:21.499Z,102384.23
2018-09-01T11:12:50.120Z,102374.44
2018-09-01T11:15:18.704Z,102384.77
2018-09-01T11:17:47.338Z,102384.56
2018-09-01T11:20:16.011Z,102391.73
2018-09-01T11:22:44.627Z,102387.74
2018-09-01T11:25:13.232Z,102394.32
2018-09-01T11:27:41.862Z,102389.52
2018-09-01T11:30:11.520Z,102379.66
2018-09-01T11:32:40.122Z,102383.77
2018-09-01T11:35:09.022Z,102377.45
2018-09-01T11:37:37.630Z,102375.42
2018-09-01T11:40:06.356Z,102378.05
2018-09-01T11:42:35.024Z,102381.69
2018-09-01T11:45:03.585Z,102390.26
2018-09-01T11:47:32.183Z,102381.41
2018-09-01T11:50:00.832Z,102374.31
2018-09-01T11:52:29.401Z,102374.72
2018-09-01T11:54:58.059Z,102378.20
2018-09-01T11:57:26.673Z,102373.20
2018-09-01T11:59:55.268Z,102373.84
2018-09-01T12:02:23.895Z,102371.30
2018-09-01T12:04:52.502Z,102375.31
2018-09-01T12:07:21.105Z,102367.81
2018-09-01T12:09:49.699Z,102369.91
2018-09-01T12:12:18.283Z,102371.30
2018-09-01T12:14:46.847Z,102376.55
2018-09-01T12:17:15.464Z,102373.86
2018-09-01T12:19:44.041Z,102379.61
2018-09-01T12:22:12.716Z,102377.05
2018-09-01T12:24:41.306Z,102369.23
2018-09-01T12:27:09.936Z,102373.32
2018-09-01T12:29:39.337Z,102375.66
2018-09-01T12:32:07.938Z,102380.45
2018-09-01T12:34:36.489Z,102374.17
2018-09-01T12:37:05.090Z,102373.41
2018-09-01T12:39:33.649Z,102373.27
2018-09-01T12:42:02.277Z,102376.17
2018-09-01T12:44:30.851Z,102382.73
2018-09-01T12:46:59.427Z,102378.93
2018-09-01T12:49:27.999Z,102375.51
2018-09-01T12:51:56.580Z,102370.72
2018-09-01T12:54:25.148Z,102373.59
2018-09-01T12:56:53.729Z,102370.20
2018-09-01T12:59:22.361Z,102367.17
2018-09-01T13:01:50.960Z,102372.41
2018-09-01T13:04:19.540Z,102369.43
2018-09-01T13:06:48.181Z,102372.53
2018-09-01T13:09:16.752Z,102374.34
2018-09-01T13:11:45.344Z,102378.77
2018-09-01T13:14:13.923Z,102371.01
2018-09-01T13:16:42.480Z,102375.27
2018-09-01T13:19:11.196Z,102377.08
2018-09-01T13:21:39.765Z,102376.39
2018-09-01T13:24:08.388Z,102363.28
2018-09-01T13:26:36.959Z,102362.27
2018-09-01T13:29:05.581Z,102369.20
2018-09-01T13:31:34.160Z,102366.73
2018-09-01T13:34:03.478Z,102366.14
2018-09-01T13:36:32.048Z,102375.02
2018-09-01T13:39:00.671Z,102370.02
2018-09-01T13:41:29.273Z,102381.42
2018-09-01T13:43:57.851Z,102376.86
2018-09-01T13:46:26.410Z,102375.71
2018-09-01T13:48:54.998Z,102377.29
2018-09-01T13:51:23.564Z,102385.51
2018-09-01T13:53:52.170Z,102387.81
2018-09-01T13:56:20.732Z,102383.09
2018-09-01T13:58:49.334Z,102380.41
2018-09-01T14:01:17.897Z,102381.63
2018-09-01T14:03:46.479Z,102379.11
2018-09-01T14:06:15.053Z,102376.72
2018-09-01T14:08:43.625Z,102380.70
2018-09-01T14:11:12.216Z,102372.04
2018-09-01T14:13:40.810Z,102378.75
2018-09-01T14:16:09.367Z,102374.31
2018-09-01T14:18:38.004Z,102373.36
2018-09-01T14:21:07.079Z,102379.73
2018-09-01T14:23:35.666Z,102380.04
2018-09-01T14:26:04.242Z,102387.62
2018-09-01T14:28:32.848Z,102389.80
2018-09-01T14:31:01.442Z,102385.40
2018-09-01T14:33:30.041Z,102385.44
2018-09-01T14:35:58.686Z,102385.54
2018-09-01T14:38:27.297Z,102376.75
2018-09-01T14:40:55.892Z,102375.94
2018-09-01T14:43:24.509Z,102372.02
2018-09-01T14:45:53.105Z,102382.19
2018-09-01T14:48:21.787Z,102372.47
2018-09-01T14:50:50.305Z,102377.91
2018-09-01T14:53:18.970Z,102386.13
2018-09-01T14:55:47.568Z,102380.93
2018-09-01T14:58:16.181Z,102368.70
2018-09-01T15:00:44.772Z,102366.18
2018-09-01T15:03:13.380Z,102378.13
2018-09-01T15:05:41.966Z,102371.59
2018-09-01T15:08:10.567Z,102376.59
2018-09-01T15:10:39.145Z,102377.02
2018-09-01T15:13:07.746Z,102377.38
2018-09-01T15:15:36.327Z,102383.41
2018-09-01T15:18:04.953Z,102380.22
2018-09-01T15:20:33.590Z,102383.20
2018-09-01T15:23:02.450Z,102384.77
2018-09-01T15:25:31.125Z,102391.94
2018-09-01T15:27:59.700Z,102396.63
2018-09-01T15:30:28.300Z,102394.91
2018-09-01T15:32:56.871Z,102399.13
2018-09-01T15:35:25.513Z,102396.30
2018-09-01T15:37:54.172Z,102402.09
2018-09-01T15:40:22.791Z,102405.89
2018-09-01T15:42:51.362Z,102405.95
2018-09-01T15:45:19.936Z,102410.78
2018-09-01T15:47:48.589Z,102405.47
2018-09-01T15:50:17.180Z,102401.88
2018-09-01T15:52:45.813Z,102402.05
2018-09-01T15:55:14.406Z,102405.00
2018-09-01T15:57:42.980Z,102404.92
2018-09-01T16:00:11.589Z,102404.13
2018-09-01T16:02:40.153Z,102404.60
2018-09-01T16:05:08.737Z,102408.18
2018-09-01T16:07:37.309Z,102414.58
2018-09-01T16:10:06.157Z,102415.38
2018-09-01T16:12:34.763Z,102422.86
2018-09-01T16:15:03.373Z,102426.23
2018-09-01T16:17:31.943Z,102422.40
2018-09-01T16:20:00.566Z,102421.61
2018-09-01T16:22:29.193Z,102421.02
2018-09-01T16:24:57.811Z,102416.77
2018-09-01T16:27:26.404Z,102418.07
2018-09-01T16:29:54.990Z,102420.00
2018-09-01T16:32:23.590Z,102425.97
2018-09-01T16:34:52.195Z,102421.00
2018-09-01T16:37:20.822Z,102426.47
2018-09-01T16:39:49.416Z,102428.56
2018-09-01T16:42:17.972Z,102421.70
2018-09-01T16:44:46.569Z,102430.72
2018-09-01T16:47:15.151Z,102432.97
2018-09-01T16:49:43.776Z,102433.04
2018-09-01T16:52:12.528Z,102435.79
2018-09-01T16:54:41.085Z,102434.41
2018-09-01T16:57:09.666Z,102434.07
2018-09-01T16:59:38.277Z,102437.53
2018-09-01T17:02:06.961Z,102444.67
2018-09-01T17:04:35.579Z,102443.29
2018-09-01T17:07:04.191Z,102448.52
2018-09-01T17:09:32.882Z,102454.55
2018-09-01T17:12:01.474Z,102453.14
2018-09-01T17:14:30.084Z,102454.39
2018-09-01T17:16:58.652Z,102454.31
2018-09-01T17:19:27.261Z,102450.77
2018-09-01T17:21:55.834Z,102450.19
2018-09-01T17:24:24.458Z,102459.07
2018-09-01T17:26:53.057Z,102456.47
2018-09-01T17:29:21.637Z,102461.61
2018-09-01T17:31:50.284Z,102465.34
2018-09-01T17:34:18.849Z,102471.84
2018-09-01T17:36:47.441Z,102465.81
2018-09-01T17:39:16.041Z,102474.41
2018-09-01T17:41:44.646Z,102471.72
2018-09-01T17:44:13.242Z,102476.30
2018-09-01T17:46:41.838Z,102479.04
2018-09-01T17:49:10.425Z,102478.92
2018-09-01T17:51:39.053Z,102486.00
2018-09-01T17:54:07.660Z,102487.86
2018-09-01T17:56:36.353Z,102490.06
2018-09-01T17:59:04.951Z,102488.89
2018-09-01T18:01:34.044Z,102486.94
2018-09-01T18:04:02.776Z,102488.45
2018-09-01T18:06:31.384Z,102492.90
2018-09-01T18:08:59.961Z,102497.23
2018-09-01T18:11:28.565Z,102496.88
2018-09-01T18:13:57.181Z,102503.15
2018-09-01T18:16:25.820Z,102507.89
2018-09-01T18:18:54.401Z,102508.36
2018-09-01T18:21:22.993Z,102505.22
2018-09-01T18:23:51.574Z,102507.27
2018-09-01T18:26:20.164Z,102512.38
2018-09-01T18:28:48.722Z,102515.91
2018-09-01T18:31:17.406Z,102514.13
2018-09-01T18:33:45.956Z,102518.70
2018-09-01T18:36:14.566Z,102523.98
2018-09-01T18:38:43.154Z,102522.73
2018-09-01T18:41:11.836Z,102522.14
2018-09-01T18:43:40.361Z,102522.75
2018-09-01T18:46:08.951Z,102527.20
2018-09-01T18:48:37.524Z,102527.63
2018-09-01T18:51:06.174Z,102532.36
2018-09-01T18:53:34.854Z,102529.88
2018-09-01T18:56:03.495Z,102539.73
2018-09-01T18:58:32.071Z,102538.62
2018-09-01T19:01:00.734Z,102536.29
2018-09-01T19:03:29.364Z,102542.73
2018-09-01T19:05:57.984Z,102546.41
2018-09-01T19:08:26.562Z,102538.09
2018-09-01T19:10:55.159Z,102548.36
2018-09-01T19:13:23.742Z,102548.27
2018-09-01T19:15:52.321Z,102549.07
2018-09-01T19:18:20.895Z,102553.98
2018-09-01T19:20:49.491Z,102553.03
2018-09-01T19:23:18.068Z,102553.41
2018-09-01T19:25:46.673Z,102556.73
2018-09-01T19:28:15.255Z,102560.02
2018-09-01T19:30:43.818Z,102565.74
2018-09-01T19:33:12.432Z,102560.12
2018-09-01T19:35:40.994Z,102560.85
2018-09-01T19:38:09.598Z,102555.70
2018-09-01T19:40:38.228Z,102558.11
2018-09-01T19:43:06.863Z,102561.01
2018-09-01T19:45:35.589Z,102561.57
2018-09-01T19:48:04.070Z,102557.48
2018-09-01T19:50:32.877Z,102559.05
2018-09-01T19:53:01.485Z,102563.53
2018-09-01T19:55:30.060Z,102563.23
2018-09-01T19:57:58.648Z,102567.16
2018-09-01T20:00:27.206Z,102561.50
2018-09-01T20:02:55.823Z,102563.55
2018-09-01T20:05:24.409Z,102565.98
2018-09-01T20:07:53.013Z,102568.37
2018-09-01T20:10:21.748Z,102566.84
2018-09-01T20:12:51.849Z,102571.97
2018-09-01T20:15:20.484Z,102573.31
2018-09-01T20:17:49.063Z,102573.83
2018-09-01T20:20:17.674Z,102569.91
2018-09-01T20:22:46.236Z,102573.50
2018-09-01T20:25:14.915Z,102572.95
2018-09-01T20:27:43.538Z,102569.55
2018-09-01T20:30:12.184Z,102572.09
2018-09-01T20:32:40.790Z,102566.95
2018-09-01T20:35:14.641Z,102570.54
2018-09-01T20:37:43.292Z,102574.64
2018-09-01T20:40:11.871Z,102577.38
2018-09-01T20:42:40.477Z,102575.81
2018-09-01T20:45:09.080Z,102584.02
2018-09-01T20:47:37.769Z,102587.59
2018-09-01T20:50:06.405Z,102589.95
2018-09-01T20:52:35.018Z,102589.29
2018-09-01T20:55:03.640Z,102592.22
2018-09-01T20:57:32.244Z,102593.41
2018-09-01T21:00:00.828Z,102591.52
2018-09-01T21:02:29.426Z,102588.26
2018-09-01T21:04:58.022Z,102589.28
2018-09-01T21:07:26.636Z,102592.67
2018-09-01T21:09:55.219Z,102596.44
2018-09-01T21:12:23.812Z,102598.64
2018-09-01T21:14:52.380Z,102599.82
2018-09-01T21:17:21.003Z,102604.09
2018-09-01T21:19:49.566Z,102602.17
2018-09-01T21:22:18.176Z,102600.22
2018-09-01T21:24:46.982Z,102595.55
2018-09-01T21:27:15.601Z,102597.58
2018-09-01T21:29:44.286Z,102593.43
2018-09-01T21:32:12.886Z,102594.12
2018-09-01T21:34:41.452Z,102595.15
2018-09-01T21:37:10.035Z,102598.73
2018-09-01T21:39:38.607Z,102602.13
2018-09-01T21:42:07.206Z,102602.30
2018-09-01T21:44:35.771Z,102605.66
2018-09-01T21:47:04.411Z,102603.25
2018-09-01T21:49:33.026Z,102597.40
2018-09-01T21:52:01.840Z,102609.17
2018-09-01T21:54:30.449Z,102614.13
2018-09-01T21:56:59.084Z,102613.81
2018-09-01T21:59:27.917Z,102616.91
2018-09-01T22:02:01.697Z,102624.80
2018-09-01T22:04:35.317Z,102616.55
2018-09-01T22:07:03.901Z,102616.66
2018-09-01T22:09:32.509Z,102619.50
2018-09-01T22:12:01.084Z,102613.64
2018-09-01T22:14:29.681Z,102611.42
2018-09-01T22:16:58.264Z,102619.62
2018-09-01T22:19:26.864Z,102620.95
2018-09-01T22:21:55.451Z,102623.66
2018-09-01T22:24:24.056Z,102617.31
2018-09-01T22:26:52.622Z,102616.00
2018-09-01T22:29:21.201Z,102614.13
2018-09-01T22:31:49.765Z,102614.66
2018-09-01T22:34:18.424Z,102618.92
2018-09-01T22:36:46.986Z,102624.17
2018-09-01T22:39:15.570Z,102614.20
2018-09-01T22:41:44.137Z,102617.33
2018-09-01T22:44:12.718Z,102618.65
2018-09-01T22:46:41.302Z,102618.86
2018-09-01T22:49:09.894Z,102621.53
2018-09-01T22:51:38.505Z,102617.17
2018-09-01T22:54:07.086Z,102617.21
2018-09-01T22:56:35.653Z,102618.23
2018-09-01T22:59:04.289Z,102622.55
2018-09-01T23:01:32.865Z,102621.52
2018-09-01T23:04:01.444Z,102622.55
2018-09-01T23:06:30.003Z,102622.70
2018-09-01T23:08:58.590Z,102617.48
2018-09-01T23:11:27.163Z,102617.80
2018-09-01T23:13:55.754Z,102616.30
2018-09-01T23:16:24.324Z,102622.81
2018-09-01T23:18:52.933Z,102620.55
2018-09-01T23:21:21.498Z,102618.52
2018-09-01T23:23:50.085Z,102618.17
2018-09-01T23:26:18.656Z,102617.56
2018-09-01T23:28:47.233Z,102615.09
2018-09-01T23:31:15.795Z,102617.09
2018-09-01T23:33:44.381Z,102612.36
2018-09-01T23:36:12.944Z,102613.61
2018-09-01T23:38:41.518Z,102613.66
2018-09-01T23:41:10.094Z,102612.67
2018-09-01T23:43:38.686Z,102609.73
2018-09-01T23:46:07.364Z,102607.81
2018-09-01T23:48:35.940Z,102607.47
2018-09-01T23:51:04.586Z,102606.23
2018-09-01T23:53:33.177Z,102605.17
2018-09-01T23:56:01.742Z,102608.47
2018-09-01T23:58:30.350Z,102614.61
